CheckWX is a tool to help pilots better visualize weather data.  It is not intended as a substitute for an official pre-flight weather briefing.

17:56:53 UTC

A39 METAR
Ak-Chin Regional Airport
Maricopa, Arizona, USA
Current

22 mins ago

KA39 241735Z AUTO 36008KT 10SM CLR 25/01 A2999 RMK AO2
Observed
May-24 @ 17:35 UTC
Wind
  • 360° at 8 KTS
Visibility
10 SM
Flight Rules
VFR
Cloud Levels
  • Clear skies
Temperature
25°C / 77°F
Dewpoint
C / 34°F
Humidity
21%
Altimeter
29.99" Hg
Pressure
1015.62 hPa
Previous

42 mins ago

KA39 241715Z AUTO 35008KT 10SM CLR 24/02 A3000 RMK AO2
Observed
May-24 @ 17:15 UTC
Wind
  • 350° at 8 KTS
Visibility
10 SM
Flight Rules
VFR
Cloud Levels
  • Clear skies
Temperature
24°C / 75°F
Dewpoint
C / 36°F
Humidity
24%
Altimeter
30" Hg
Pressure
1015.92 hPa
Previous

1 hour ago

KA39 241655Z AUTO 03005KT 10SM CLR 23/02 A3000 RMK AO2
Observed
May-24 @ 16:55 UTC
Wind
  • 030° at 5 KTS
Visibility
10 SM
Flight Rules
VFR
Cloud Levels
  • Clear skies
Temperature
23°C / 73°F
Dewpoint
C / 36°F
Humidity
25%
Altimeter
30" Hg
Pressure
1015.92 hPa